Aérodrome :
LOGIN :

S'inscrire | Disclaimer

   EN    FR    IT 

 










Légende :    VFR   VFR Marginal   IFR   IFR Intensif   IFR Très Intensif
Visi : 
Plafond : 
>= 8 km
>= 3000ft
5 à 8 km
1000 à 3000 ft
1500m à 5 km
500 à 1000 ft
800 à 1500m
200 à 500 ft
< 800m
< 200 ft
Symboles :   Orages  Brouillard  Fortes neiges  Fortes précipitations  Vent > 20 kt
SIGMETs :   Divers  Orages  Givrage  Turbulence  Onde Orograph.  Cendres Volcan.







- Altitude de l'aérodrome : 1416 ft
- Code IATA : ZRH


LSZH - Zurich

DERNIER METAR :
  • 251420Z 23007KT 190V280 5000 -RA FEW010 SCT014 BKN045 10/09 Q1008 TEMPO 4000 RA BKN014

METARs EXPIRÉS :
  • 251350Z 23007KT 6000 -SHRA FEW010 SCT020 BKN040 10/09 Q1008 TEMPO 4000 SHRA
  • 251320Z 24003KT 190V310 6000 -SHRA FEW009 SCT025 BKN040 11/09 Q1008 TEMPO 4000 SHRA
  • 251250Z 28005KT 250V350 5000 -SHRA FEW018 FEW022TCU SCT028 BKN045 11/09 Q1008 RESHRA TEMPO 4000 SHRA
  • 251220Z 24005KT 210V290 4500 SHRA FEW018 FEW024TCU SCT033 BKN045 12/09 Q1008 TEMPO 5000 NSW
  • 251150Z 26007KT 6000 SHRA FEW022 FEW028TCU SCT035 BKN050 11/09 Q1008 TEMPO 4000

TAF TAF LSZH
Valide du 25 à 15h jusqu'au 26 à 21h UTC


251425Z 2515/2621 25007KT 6000 FEW030 BKN060 TX09/2515Z TN03/2605Z TX06/2612Z
TEMPO 2515/2518 30010KT
TEMPO 2515/2520 4000 SHRA
PROB30
TEMPO 2515/2517 30015G25KT SCT050TCU
BECMG 2520/2523 4000 RA BKN013
PROB40
TEMPO 2523/2614 03005KT
PROB40
TEMPO 2602/2606 2000 RASN BKN008
BECMG 2609/2612 8000 BKN035
TEMPO 2609/2615 SHRA
ATIS : +41 43 816 2295 (DEP) +41 43 816 2294 (ARR)
Pas de NOTAMs connus pour ce terrain.



MET'MAP, la Météo Aéronautique d'un coup d'oeil ! - Copyright ORBIFLY Décembre 2007 - Disclaimer

ORBIFLY MET'MAP TEAM :

Programmation & Développement : Alexandra Zaïnal
Conception & Développement : Baudouin d'Aumeries
Co-Programmation & Développement : Marc-Olivier Méhu
Soutien technique & logistique : Manuel Goepfert

Contact : metmap@orbifly.com




SOURCES & CREDITS :

   NOAA